sensor_id;sensor_type;location;lat;lon;timestamp;pressure;altitude;pressure_sealevel;temperature;humidity
34177;BME280;20450;49.074;9.158;2023-07-29T00:01:40;99298.72;;;19.52;93.86
34177;BME280;20450;49.074;9.158;2023-07-29T00:04:08;99305.06;;;19.37;94.58
34177;BME280;20450;49.074;9.158;2023-07-29T00:06:36;99303.44;;;19.36;94.30
34177;BME280;20450;49.074;9.158;2023-07-29T00:09:04;99299.34;;;19.29;94.63
34177;BME280;20450;49.074;9.158;2023-07-29T00:11:30;99288.88;;;19.41;94.43
34177;BME280;20450;49.074;9.158;2023-07-29T00:13:57;99291.84;;;19.49;93.98
34177;BME280;20450;49.074;9.158;2023-07-29T00:16:28;99288.53;;;19.58;93.27
34177;BME280;20450;49.074;9.158;2023-07-29T00:18:55;99294.53;;;19.65;92.71
34177;BME280;20450;49.074;9.158;2023-07-29T00:21:22;99296.72;;;19.63;92.03
34177;BME280;20450;49.074;9.158;2023-07-29T00:23:49;99292.13;;;19.58;91.56
34177;BME280;20450;49.074;9.158;2023-07-29T00:26:17;99275.47;;;19.39;92.40
34177;BME280;20450;49.074;9.158;2023-07-29T00:28:44;99284.03;;;19.28;92.73
34177;BME280;20450;49.074;9.158;2023-07-29T00:31:11;99276.63;;;19.23;92.54
34177;BME280;20450;49.074;9.158;2023-07-29T00:33:39;99283.69;;;19.44;91.85
34177;BME280;20450;49.074;9.158;2023-07-29T00:36:06;99279.31;;;19.38;91.80
34177;BME280;20450;49.074;9.158;2023-07-29T00:38:33;99277.69;;;19.32;92.23
34177;BME280;20450;49.074;9.158;2023-07-29T00:41:02;99274.94;;;19.22;93.53
34177;BME280;20450;49.074;9.158;2023-07-29T00:43:29;99270.91;;;19.10;94.21
34177;BME280;20450;49.074;9.158;2023-07-29T00:45:56;99271.19;;;19.08;94.31
34177;BME280;20450;49.074;9.158;2023-07-29T00:48:25;99265.72;;;19.08;94.31
34177;BME280;20450;49.074;9.158;2023-07-29T00:50:54;99270.63;;;19.06;94.68
34177;BME280;20450;49.074;9.158;2023-07-29T00:53:23;99276.16;;;19.01;94.79
34177;BME280;20450;49.074;9.158;2023-07-29T00:55:50;99273.97;;;18.98;95.09
34177;BME280;20450;49.074;9.158;2023-07-29T00:58:17;99276.41;;;19.00;94.78
34177;BME280;20450;49.074;9.158;2023-07-29T01:00:44;99259.44;;;18.93;94.82
34177;BME280;20450;49.074;9.158;2023-07-29T01:03:11;99253.97;;;19.03;94.24
34177;BME280;20450;49.074;9.158;2023-07-29T01:05:48;99260.56;;;18.97;94.78
34177;BME280;20450;49.074;9.158;2023-07-29T01:08:32;99248.22;;;18.99;94.86
34177;BME280;20450;49.074;9.158;2023-07-29T01:11:16;99240.25;;;19.08;94.66
34177;BME280;20450;49.074;9.158;2023-07-29T01:13:58;99253.13;;;19.02;94.69
34177;BME280;20450;49.074;9.158;2023-07-29T01:16:39;99250.66;;;19.06;94.32
34177;BME280;20450;49.074;9.158;2023-07-29T01:19:16;99247.59;;;19.27;93.01
34177;BME280;20450;49.074;9.158;2023-07-29T01:21:56;99248.38;;;19.33;92.22
34177;BME280;20450;49.074;9.158;2023-07-29T01:24:25;99239.34;;;19.22;93.06
34177;BME280;20450;49.074;9.158;2023-07-29T01:26:55;99235.25;;;19.25;92.62
34177;BME280;20450;49.074;9.158;2023-07-29T01:29:22;99236.06;;;19.25;92.46
34177;BME280;20450;49.074;9.158;2023-07-29T01:31:52;99238.25;;;19.28;92.03
34177;BME280;20450;49.074;9.158;2023-07-29T01:34:29;99238.56;;;19.22;92.30
34177;BME280;20450;49.074;9.158;2023-07-29T01:37:02;99228.69;;;19.31;91.91
34177;BME280;20450;49.074;9.158;2023-07-29T01:39:37;99227.56;;;19.37;91.56
34177;BME280;20450;49.074;9.158;2023-07-29T01:42:07;99224.28;;;19.35;91.49
34177;BME280;20450;49.074;9.158;2023-07-29T01:44:35;99237.13;;;19.34;91.42
34177;BME280;20450;49.074;9.158;2023-07-29T01:47:03;99231.34;;;19.46;90.63
34177;BME280;20450;49.074;9.158;2023-07-29T01:49:30;99225.31;;;19.44;91.13
34177;BME280;20450;49.074;9.158;2023-07-29T01:51:58;99222.22;;;19.61;90.66
34177;BME280;20450;49.074;9.158;2023-07-29T01:54:26;99221.09;;;19.67;90.59
34177;BME280;20450;49.074;9.158;2023-07-29T01:56:54;99223.50;;;19.73;90.49
34177;BME280;20450;49.074;9.158;2023-07-29T01:59:21;99214.13;;;19.79;90.01
34177;BME280;20450;49.074;9.158;2023-07-29T02:01:48;99210.03;;;19.82;90.07
34177;BME280;20450;49.074;9.158;2023-07-29T02:04:15;99218.19;;;19.87;89.99
34177;BME280;20450;49.074;9.158;2023-07-29T02:06:42;99222.81;;;19.91;89.78
34177;BME280;20450;49.074;9.158;2023-07-29T02:09:09;99210.63;;;19.74;89.12
34177;BME280;20450;49.074;9.158;2023-07-29T02:11:36;99200.72;;;19.78;89.73
34177;BME280;20450;49.074;9.158;2023-07-29T02:14:05;99209.44;;;19.85;89.79
34177;BME280;20450;49.074;9.158;2023-07-29T02:16:32;99196.53;;;19.85;89.50
34177;BME280;20450;49.074;9.158;2023-07-29T02:18:58;99199.81;;;19.92;89.27
34177;BME280;20450;49.074;9.158;2023-07-29T02:21:26;99202.53;;;19.92;88.88
34177;BME280;20450;49.074;9.158;2023-07-29T02:23:53;99203.38;;;19.49;89.27
34177;BME280;20450;49.074;9.158;2023-07-29T02:26:23;99220.28;;;19.61;89.31
34177;BME280;20450;49.074;9.158;2023-07-29T02:28:50;99217.94;;;19.44;89.69
34177;BME280;20450;49.074;9.158;2023-07-29T02:31:22;99209.44;;;19.46;89.44
34177;BME280;20450;49.074;9.158;2023-07-29T02:33:50;99214.66;;;19.42;89.91
34177;BME280;20450;49.074;9.158;2023-07-29T02:36:18;99210.84;;;19.33;90.09
34177;BME280;20450;49.074;9.158;2023-07-29T02:38:45;99207.53;;;19.41;89.55
34177;BME280;20450;49.074;9.158;2023-07-29T02:41:13;99211.66;;;19.39;89.63
34177;BME280;20450;49.074;9.158;2023-07-29T02:43:42;99206.22;;;19.34;90.24
34177;BME280;20450;49.074;9.158;2023-07-29T02:46:10;99204.03;;;19.31;90.20
34177;BME280;20450;49.074;9.158;2023-07-29T02:48:38;99207.47;;;19.52;89.79
34177;BME280;20450;49.074;9.158;2023-07-29T02:51:05;99199.31;;;19.41;89.28
34177;BME280;20450;49.074;9.158;2023-07-29T02:53:33;99201.50;;;19.39;89.90
34177;BME280;20450;49.074;9.158;2023-07-29T02:56:00;99194.41;;;19.38;89.19
34177;BME280;20450;49.074;9.158;2023-07-29T02:58:27;99188.69;;;19.30;89.81
34177;BME280;20450;49.074;9.158;2023-07-29T03:01:00;99194.72;;;19.32;89.44
34177;BME280;20450;49.074;9.158;2023-07-29T03:03:27;99188.94;;;19.33;89.52
34177;BME280;20450;49.074;9.158;2023-07-29T03:05:59;99179.66;;;19.24;89.75
34177;BME280;20450;49.074;9.158;2023-07-29T03:08:27;99183.69;;;19.42;89.36
34177;BME280;20450;49.074;9.158;2023-07-29T03:10:55;99169.13;;;19.52;88.99
34177;BME280;20450;49.074;9.158;2023-07-29T03:13:24;99161.38;;;19.59;89.10
34177;BME280;20450;49.074;9.158;2023-07-29T03:15:51;99158.69;;;19.54;89.30
34177;BME280;20450;49.074;9.158;2023-07-29T03:18:18;99174.53;;;19.62;88.75
34177;BME280;20450;49.074;9.158;2023-07-29T03:20:45;99162.22;;;19.59;89.07
34177;BME280;20450;49.074;9.158;2023-07-29T03:23:16;99161.31;;;19.69;88.67
34177;BME280;20450;49.074;9.158;2023-07-29T03:25:43;99160.44;;;19.73;88.28
34177;BME280;20450;49.074;9.158;2023-07-29T03:28:10;99156.84;;;19.78;87.96
34177;BME280;20450;49.074;9.158;2023-07-29T03:30:37;99160.13;;;19.80;87.97
34177;BME280;20450;49.074;9.158;2023-07-29T03:33:07;99172.06;;;19.60;87.61
34177;BME280;20450;49.074;9.158;2023-07-29T03:35:34;99176.63;;;19.26;88.70
34177;BME280;20450;49.074;9.158;2023-07-29T03:38:01;99170.28;;;19.40;88.44
34177;BME280;20450;49.074;9.158;2023-07-29T03:40:29;99172.44;;;19.43;88.30
34177;BME280;20450;49.074;9.158;2023-07-29T03:42:56;99172.22;;;19.40;88.61
34177;BME280;20450;49.074;9.158;2023-07-29T03:45:23;99162.59;;;19.42;88.20
34177;BME280;20450;49.074;9.158;2023-07-29T03:47:50;99162.31;;;19.44;88.53
34177;BME280;20450;49.074;9.158;2023-07-29T03:50:17;99152.28;;;19.29;88.90
34177;BME280;20450;49.074;9.158;2023-07-29T03:52:44;99154.66;;;19.46;88.39
34177;BME280;20450;49.074;9.158;2023-07-29T03:55:11;99148.53;;;19.59;88.12
34177;BME280;20450;49.074;9.158;2023-07-29T03:57:39;99138.06;;;19.61;88.11
34177;BME280;20450;49.074;9.158;2023-07-29T04:00:07;99146.34;;;19.56;88.17
34177;BME280;20450;49.074;9.158;2023-07-29T04:02:42;99142.28;;;19.48;88.17
34177;BME280;20450;49.074;9.158;2023-07-29T04:05:10;99145.78;;;19.59;88.03
34177;BME280;20450;49.074;9.158;2023-07-29T04:07:37;99146.00;;;19.63;87.75
34177;BME280;20450;49.074;9.158;2023-07-29T04:10:05;99138.41;;;19.55;87.63
34177;BME280;20450;49.074;9.158;2023-07-29T04:12:34;99151.16;;;19.30;88.94
34177;BME280;20450;49.074;9.158;2023-07-29T04:15:03;99142.28;;;19.48;88.26
34177;BME280;20450;49.074;9.158;2023-07-29T04:17:31;99131.81;;;19.56;88.14
34177;BME280;20450;49.074;9.158;2023-07-29T04:19:58;99137.19;;;19.32;88.51
34177;BME280;20450;49.074;9.158;2023-07-29T04:22:31;99140.25;;;19.20;89.21
34177;BME280;20450;49.074;9.158;2023-07-29T04:24:58;99144.88;;;19.30;88.51
34177;BME280;20450;49.074;9.158;2023-07-29T04:27:28;99139.41;;;19.25;88.79
34177;BME280;20450;49.074;9.158;2023-07-29T04:29:55;99140.75;;;19.32;88.78
34177;BME280;20450;49.074;9.158;2023-07-29T04:32:24;99156.63;;;19.25;89.11
34177;BME280;20450;49.074;9.158;2023-07-29T04:34:51;99156.13;;;19.23;89.29
34177;BME280;20450;49.074;9.158;2023-07-29T04:37:18;99163.00;;;19.16;89.56
34177;BME280;20450;49.074;9.158;2023-07-29T04:39:45;99178.81;;;19.24;89.58
34177;BME280;20450;49.074;9.158;2023-07-29T04:42:12;99184.22;;;19.44;89.00
34177;BME280;20450;49.074;9.158;2023-07-29T04:44:40;99199.84;;;19.43;89.35
34177;BME280;20450;49.074;9.158;2023-07-29T04:47:08;99220.03;;;19.58;89.13
34177;BME280;20450;49.074;9.158;2023-07-29T04:49:37;99242.50;;;19.60;91.46
34177;BME280;20450;49.074;9.158;2023-07-29T04:52:04;99250.81;;;19.44;93.18
34177;BME280;20450;49.074;9.158;2023-07-29T04:54:32;99232.91;;;18.98;96.08
34177;BME280;20450;49.074;9.158;2023-07-29T04:56:59;99202.56;;;18.85;99.82
34177;BME280;20450;49.074;9.158;2023-07-29T04:59:26;99196.38;;;18.39;100.00
34177;BME280;20450;49.074;9.158;2023-07-29T05:01:53;99188.44;;;18.18;100.00
34177;BME280;20450;49.074;9.158;2023-07-29T05:04:21;99179.41;;;18.17;100.00
34177;BME280;20450;49.074;9.158;2023-07-29T05:06:49;99172.88;;;18.18;100.00
34177;BME280;20450;49.074;9.158;2023-07-29T05:09:17;99178.34;;;18.13;100.00
34177;BME280;20450;49.074;9.158;2023-07-29T05:11:45;99172.31;;;18.26;100.00
34177;BME280;20450;49.074;9.158;2023-07-29T05:14:13;99170.91;;;18.29;100.00
34177;BME280;20450;49.074;9.158;2023-07-29T05:16:41;99175.31;;;18.40;100.00
34177;BME280;20450;49.074;9.158;2023-07-29T05:19:08;99178.31;;;18.53;100.00
34177;BME280;20450;49.074;9.158;2023-07-29T05:21:36;99178.53;;;18.67;100.00
34177;BME280;20450;49.074;9.158;2023-07-29T05:24:06;99184.28;;;18.65;100.00
34177;BME280;20450;49.074;9.158;2023-07-29T05:26:33;99178.50;;;18.77;100.00
34177;BME280;20450;49.074;9.158;2023-07-29T05:29:01;99176.81;;;18.86;100.00
34177;BME280;20450;49.074;9.158;2023-07-29T05:31:28;99179.56;;;18.86;100.00
34177;BME280;20450;49.074;9.158;2023-07-29T05:33:55;99181.19;;;18.92;100.00
34177;BME280;20450;49.074;9.158;2023-07-29T05:36:22;99176.78;;;18.96;100.00
34177;BME280;20450;49.074;9.158;2023-07-29T05:38:50;99175.97;;;18.95;100.00
34177;BME280;20450;49.074;9.158;2023-07-29T05:41:20;99175.25;;;18.70;100.00
34177;BME280;20450;49.074;9.158;2023-07-29T05:43:47;99176.59;;;18.72;100.00
34177;BME280;20450;49.074;9.158;2023-07-29T05:46:14;99183.66;;;18.88;100.00
34177;BME280;20450;49.074;9.158;2023-07-29T05:48:42;99182.53;;;18.99;100.00
34177;BME280;20450;49.074;9.158;2023-07-29T05:51:11;99187.09;;;19.14;100.00
34177;BME280;20450;49.074;9.158;2023-07-29T05:53:39;99198.28;;;19.27;100.00
34177;BME280;20450;49.074;9.158;2023-07-29T05:56:06;99195.25;;;19.34;100.00
34177;BME280;20450;49.074;9.158;2023-07-29T05:58:34;99195.75;;;19.41;100.00
34177;BME280;20450;49.074;9.158;2023-07-29T06:01:01;99198.72;;;19.49;100.00
34177;BME280;20450;49.074;9.158;2023-07-29T06:03:28;99188.78;;;19.59;100.00
34177;BME280;20450;49.074;9.158;2023-07-29T06:05:55;99186.81;;;19.69;100.00
34177;BME280;20450;49.074;9.158;2023-07-29T06:08:22;99187.66;;;19.65;100.00
34177;BME280;20450;49.074;9.158;2023-07-29T06:10:49;99180.72;;;19.38;99.97
34177;BME280;20450;49.074;9.158;2023-07-29T06:13:17;99177.50;;;19.26;100.00
34177;BME280;20450;49.074;9.158;2023-07-29T06:15:45;99167.81;;;19.39;100.00
34177;BME280;20450;49.074;9.158;2023-07-29T06:18:12;99176.31;;;19.37;99.92
34177;BME280;20450;49.074;9.158;2023-07-29T06:20:40;99174.19;;;19.24;99.12
34177;BME280;20450;49.074;9.158;2023-07-29T06:23:08;99174.13;;;19.34;100.00
34177;BME280;20450;49.074;9.158;2023-07-29T06:25:35;99173.47;;;19.58;100.00
34177;BME280;20450;49.074;9.158;2023-07-29T06:28:02;99168.34;;;19.46;99.16
34177;BME280;20450;49.074;9.158;2023-07-29T06:30:29;99167.22;;;19.47;99.66
34177;BME280;20450;49.074;9.158;2023-07-29T06:32:58;99177.31;;;19.57;99.61
34177;BME280;20450;49.074;9.158;2023-07-29T06:35:25;99179.31;;;19.46;98.86
34177;BME280;20450;49.074;9.158;2023-07-29T06:37:52;99176.69;;;19.65;99.36
34177;BME280;20450;49.074;9.158;2023-07-29T06:40:18;99176.09;;;19.73;99.20
34177;BME280;20450;49.074;9.158;2023-07-29T06:42:47;99184.41;;;19.58;98.04
34177;BME280;20450;49.074;9.158;2023-07-29T06:45:14;99181.00;;;19.76;98.97
34177;BME280;20450;49.074;9.158;2023-07-29T06:47:41;99195.78;;;19.75;96.73
34177;BME280;20450;49.074;9.158;2023-07-29T06:50:10;99213.16;;;19.65;96.75
34177;BME280;20450;49.074;9.158;2023-07-29T06:52:37;99206.94;;;19.88;97.40
34177;BME280;20450;49.074;9.158;2023-07-29T06:55:05;99207.03;;;19.78;96.15
34177;BME280;20450;49.074;9.158;2023-07-29T06:57:33;99207.88;;;19.74;95.65
34177;BME280;20450;49.074;9.158;2023-07-29T07:00:01;99205.69;;;19.76;95.55
34177;BME280;20450;49.074;9.158;2023-07-29T07:02:31;99203.84;;;20.00;95.96
34177;BME280;20450;49.074;9.158;2023-07-29T07:04:58;99196.91;;;20.07;95.38
34177;BME280;20450;49.074;9.158;2023-07-29T07:07:26;99205.78;;;19.94;94.39
34177;BME280;20450;49.074;9.158;2023-07-29T07:09:53;99203.03;;;19.99;95.55
34177;BME280;20450;49.074;9.158;2023-07-29T07:12:20;99206.38;;;19.91;94.73
34177;BME280;20450;49.074;9.158;2023-07-29T07:14:47;99205.22;;;19.97;95.13
34177;BME280;20450;49.074;9.158;2023-07-29T07:17:14;99216.47;;;19.96;94.42
34177;BME280;20450;49.074;9.158;2023-07-29T07:19:41;99226.56;;;20.05;95.37
34177;BME280;20450;49.074;9.158;2023-07-29T07:22:08;99230.47;;;19.94;97.31
34177;BME280;20450;49.074;9.158;2023-07-29T07:24:37;99235.03;;;19.70;98.92
34177;BME280;20450;49.074;9.158;2023-07-29T07:27:05;99228.03;;;19.49;99.94
34177;BME280;20450;49.074;9.158;2023-07-29T07:29:32;99228.28;;;19.52;100.00
34177;BME280;20450;49.074;9.158;2023-07-29T07:31:59;99226.06;;;19.60;100.00
34177;BME280;20450;49.074;9.158;2023-07-29T07:34:27;99227.63;;;19.71;100.00
34177;BME280;20450;49.074;9.158;2023-07-29T07:36:54;99224.91;;;19.66;99.46
34177;BME280;20450;49.074;9.158;2023-07-29T07:39:21;99227.56;;;19.81;98.99
34177;BME280;20450;49.074;9.158;2023-07-29T07:41:50;99228.00;;;19.98;98.98
34177;BME280;20450;49.074;9.158;2023-07-29T07:44:17;99223.78;;;19.72;98.33
34177;BME280;20450;49.074;9.158;2023-07-29T07:46:47;99217.13;;;19.83;99.07
34177;BME280;20450;49.074;9.158;2023-07-29T07:49:14;99216.84;;;19.84;98.80
34177;BME280;20450;49.074;9.158;2023-07-29T07:51:43;99222.53;;;19.93;97.95
34177;BME280;20450;49.074;9.158;2023-07-29T07:54:14;99211.78;;;20.01;98.00
34177;BME280;20450;49.074;9.158;2023-07-29T07:56:42;99212.50;;;20.12;97.49
34177;BME280;20450;49.074;9.158;2023-07-29T07:59:12;99204.81;;;20.19;96.81
34177;BME280;20450;49.074;9.158;2023-07-29T08:01:43;99202.94;;;20.43;95.35
34177;BME280;20450;49.074;9.158;2023-07-29T08:04:12;99205.50;;;20.58;93.78
34177;BME280;20450;49.074;9.158;2023-07-29T08:06:39;99204.34;;;20.64;93.39
34177;BME280;20450;49.074;9.158;2023-07-29T08:09:07;99210.25;;;21.04;94.07
34177;BME280;20450;49.074;9.158;2023-07-29T08:11:37;99204.91;;;21.37;91.62
34177;BME280;20450;49.074;9.158;2023-07-29T08:14:04;99203.63;;;21.29;89.46
34177;BME280;20450;49.074;9.158;2023-07-29T08:16:34;99196.13;;;21.53;89.40
34177;BME280;20450;49.074;9.158;2023-07-29T08:19:05;99194.22;;;21.72;89.11
34177;BME280;20450;49.074;9.158;2023-07-29T08:21:32;99199.84;;;21.62;87.00
34177;BME280;20450;49.074;9.158;2023-07-29T08:23:59;99201.06;;;21.75;87.75
34177;BME280;20450;49.074;9.158;2023-07-29T08:26:28;99205.91;;;22.15;86.94
34177;BME280;20450;49.074;9.158;2023-07-29T08:28:55;99213.31;;;22.33;86.45
34177;BME280;20450;49.074;9.158;2023-07-29T08:31:23;99220.50;;;22.47;85.92
34177;BME280;20450;49.074;9.158;2023-07-29T08:33:52;99225.06;;;22.38;85.25
34177;BME280;20450;49.074;9.158;2023-07-29T08:36:21;99228.28;;;22.27;85.34
34177;BME280;20450;49.074;9.158;2023-07-29T08:38:50;99236.84;;;22.25;85.73
34177;BME280;20450;49.074;9.158;2023-07-29T08:41:22;99237.66;;;22.26;85.27
34177;BME280;20450;49.074;9.158;2023-07-29T08:44:01;99231.16;;;22.35;84.41
34177;BME280;20450;49.074;9.158;2023-07-29T08:46:39;99234.63;;;22.27;84.08
34177;BME280;20450;49.074;9.158;2023-07-29T08:49:11;99234.00;;;22.30;83.25
34177;BME280;20450;49.074;9.158;2023-07-29T08:51:39;99238.44;;;22.45;83.22
34177;BME280;20450;49.074;9.158;2023-07-29T08:54:10;99239.41;;;22.54;83.86
34177;BME280;20450;49.074;9.158;2023-07-29T08:56:38;99245.03;;;22.30;83.28
34177;BME280;20450;49.074;9.158;2023-07-29T08:59:08;99245.22;;;22.34;83.56
34177;BME280;20450;49.074;9.158;2023-07-29T09:01:38;99248.38;;;22.41;83.45
34177;BME280;20450;49.074;9.158;2023-07-29T09:04:05;99246.34;;;22.33;83.57
34177;BME280;20450;49.074;9.158;2023-07-29T09:06:34;99249.41;;;22.31;85.40
34177;BME280;20450;49.074;9.158;2023-07-29T09:09:02;99247.06;;;22.38;87.02
34177;BME280;20450;49.074;9.158;2023-07-29T09:11:30;99240.91;;;22.28;86.08
34177;BME280;20450;49.074;9.158;2023-07-29T09:13:59;99247.44;;;22.50;84.92
34177;BME280;20450;49.074;9.158;2023-07-29T09:16:27;99242.31;;;22.89;83.17
34177;BME280;20450;49.074;9.158;2023-07-29T09:18:55;99241.81;;;23.14;82.29
34177;BME280;20450;49.074;9.158;2023-07-29T09:21:29;99236.13;;;23.25;81.25
34177;BME280;20450;49.074;9.158;2023-07-29T09:24:02;99240.72;;;23.43;79.76
34177;BME280;20450;49.074;9.158;2023-07-29T09:26:30;99247.03;;;23.16;79.29
34177;BME280;20450;49.074;9.158;2023-07-29T09:28:58;99240.88;;;22.92;78.71
34177;BME280;20450;49.074;9.158;2023-07-29T09:31:28;99247.84;;;22.89;79.33
34177;BME280;20450;49.074;9.158;2023-07-29T09:33:57;99241.31;;;22.85;79.78
34177;BME280;20450;49.074;9.158;2023-07-29T09:36:24;99255.75;;;22.64;80.76
34177;BME280;20450;49.074;9.158;2023-07-29T09:38:53;99264.22;;;22.49;81.35
34177;BME280;20450;49.074;9.158;2023-07-29T09:41:23;99259.72;;;22.39;81.48
34177;BME280;20450;49.074;9.158;2023-07-29T09:43:56;99261.59;;;22.25;80.80
34177;BME280;20450;49.074;9.158;2023-07-29T09:46:26;99260.78;;;22.25;81.69
34177;BME280;20450;49.074;9.158;2023-07-29T09:49:02;99270.22;;;22.19;82.69
34177;BME280;20450;49.074;9.158;2023-07-29T09:51:29;99279.25;;;22.06;83.65
34177;BME280;20450;49.074;9.158;2023-07-29T09:53:57;99280.81;;;21.75;84.95
34177;BME280;20450;49.074;9.158;2023-07-29T09:56:26;99282.91;;;21.59;86.09
34177;BME280;20450;49.074;9.158;2023-07-29T09:58:55;99282.63;;;21.37;88.51
34177;BME280;20450;49.074;9.158;2023-07-29T10:01:24;99289.19;;;21.17;90.96
34177;BME280;20450;49.074;9.158;2023-07-29T10:03:51;99275.19;;;20.90;93.25
34177;BME280;20450;49.074;9.158;2023-07-29T10:06:19;99263.84;;;20.73;94.37
34177;BME280;20450;49.074;9.158;2023-07-29T10:08:52;99266.44;;;20.60;96.18
34177;BME280;20450;49.074;9.158;2023-07-29T10:11:20;99248.41;;;20.77;96.18
34177;BME280;20450;49.074;9.158;2023-07-29T10:13:50;99237.97;;;20.51;96.54
34177;BME280;20450;49.074;9.158;2023-07-29T10:16:34;99233.22;;;20.85;97.33
34177;BME280;20450;49.074;9.158;2023-07-29T10:19:04;99241.75;;;21.12;97.49
34177;BME280;20450;49.074;9.158;2023-07-29T10:21:31;99225.94;;;21.65;97.79
34177;BME280;20450;49.074;9.158;2023-07-29T10:24:03;99231.28;;;22.44;97.61
34177;BME280;20450;49.074;9.158;2023-07-29T10:26:38;99230.50;;;23.02;95.89
34177;BME280;20450;49.074;9.158;2023-07-29T10:29:13;99234.97;;;23.39;93.31
34177;BME280;20450;49.074;9.158;2023-07-29T10:31:45;99241.53;;;23.92;91.51
34177;BME280;20450;49.074;9.158;2023-07-29T10:34:14;99245.34;;;24.18;85.12
34177;BME280;20450;49.074;9.158;2023-07-29T10:36:41;99237.91;;;24.49;85.29
34177;BME280;20450;49.074;9.158;2023-07-29T10:39:09;99226.94;;;24.58;80.14
34177;BME280;20450;49.074;9.158;2023-07-29T10:41:56;99239.63;;;24.59;79.67
34177;BME280;20450;49.074;9.158;2023-07-29T10:44:52;99238.88;;;24.97;77.25
34177;BME280;20450;49.074;9.158;2023-07-29T10:47:24;99244.34;;;25.28;75.99
34177;BME280;20450;49.074;9.158;2023-07-29T10:49:55;99240.81;;;25.36;73.50
34177;BME280;20450;49.074;9.158;2023-07-29T10:52:32;99245.38;;;25.32;73.54
34177;BME280;20450;49.074;9.158;2023-07-29T10:55:26;99247.94;;;25.93;72.46
34177;BME280;20450;49.074;9.158;2023-07-29T10:58:08;99245.34;;;26.31;71.72
34177;BME280;20450;49.074;9.158;2023-07-29T11:00:41;99240.78;;;26.18;68.40
34177;BME280;20450;49.074;9.158;2023-07-29T11:03:09;99237.66;;;25.85;69.16
34177;BME280;20450;49.074;9.158;2023-07-29T11:05:48;99233.13;;;26.40;67.59
34177;BME280;20450;49.074;9.158;2023-07-29T11:08:27;99241.56;;;26.52;66.77
34177;BME280;20450;49.074;9.158;2023-07-29T11:11:04;99239.47;;;26.32;66.52
34177;BME280;20450;49.074;9.158;2023-07-29T11:13:34;99229.03;;;25.87;65.72
34177;BME280;20450;49.074;9.158;2023-07-29T11:16:05;99244.84;;;26.37;64.66
34177;BME280;20450;49.074;9.158;2023-07-29T11:18:34;99235.91;;;26.23;64.26
34177;BME280;20450;49.074;9.158;2023-07-29T11:21:05;99241.69;;;26.81;62.89
34177;BME280;20450;49.074;9.158;2023-07-29T11:23:36;99219.41;;;27.07;61.46
34177;BME280;20450;49.074;9.158;2023-07-29T11:26:04;99240.47;;;27.00;61.18
34177;BME280;20450;49.074;9.158;2023-07-29T11:28:38;99234.47;;;27.64;60.06
34177;BME280;20450;49.074;9.158;2023-07-29T11:31:07;99232.88;;;28.45;58.93
34177;BME280;20450;49.074;9.158;2023-07-29T11:33:34;99234.13;;;29.13;55.39
34177;BME280;20450;49.074;9.158;2023-07-29T11:36:01;99228.38;;;28.98;55.20
34177;BME280;20450;49.074;9.158;2023-07-29T11:38:29;99226.13;;;28.67;55.26
34177;BME280;20450;49.074;9.158;2023-07-29T11:40:59;99226.22;;;28.38;54.82
34177;BME280;20450;49.074;9.158;2023-07-29T11:43:27;99221.25;;;28.64;55.01
34177;BME280;20450;49.074;9.158;2023-07-29T11:45:54;99214.22;;;28.79;54.02
34177;BME280;20450;49.074;9.158;2023-07-29T11:48:31;99224.44;;;28.54;55.43
34177;BME280;20450;49.074;9.158;2023-07-29T11:51:00;99216.09;;;28.99;52.02
34177;BME280;20450;49.074;9.158;2023-07-29T11:53:30;99207.16;;;28.81;52.27
34177;BME280;20450;49.074;9.158;2023-07-29T11:55:58;99206.22;;;28.77;52.92
34177;BME280;20450;49.074;9.158;2023-07-29T11:58:26;99220.59;;;28.79;51.84
34177;BME280;20450;49.074;9.158;2023-07-29T12:00:54;99223.56;;;29.07;50.53
34177;BME280;20450;49.074;9.158;2023-07-29T12:03:22;99222.88;;;29.34;50.48
34177;BME280;20450;49.074;9.158;2023-07-29T12:05:52;99212.66;;;29.50;49.19
34177;BME280;20450;49.074;9.158;2023-07-29T12:08:20;99199.72;;;28.73;50.61
34177;BME280;20450;49.074;9.158;2023-07-29T12:10:47;99196.25;;;28.64;49.83
34177;BME280;20450;49.074;9.158;2023-07-29T12:13:14;99201.97;;;28.47;50.95
34177;BME280;20450;49.074;9.158;2023-07-29T12:15:42;99205.22;;;27.96;51.67
34177;BME280;20450;49.074;9.158;2023-07-29T12:18:09;99201.84;;;27.82;52.97
34177;BME280;20450;49.074;9.158;2023-07-29T12:20:39;99208.88;;;27.88;51.64
34177;BME280;20450;49.074;9.158;2023-07-29T12:23:08;99199.19;;;27.65;53.71
34177;BME280;20450;49.074;9.158;2023-07-29T12:25:35;99193.38;;;27.58;53.39
34177;BME280;20450;49.074;9.158;2023-07-29T12:28:03;99195.69;;;27.27;54.11
34177;BME280;20450;49.074;9.158;2023-07-29T12:30:31;99181.50;;;26.91;54.58
34177;BME280;20450;49.074;9.158;2023-07-29T12:32:58;99192.78;;;27.15;54.14
34177;BME280;20450;49.074;9.158;2023-07-29T12:35:35;99190.69;;;27.12;55.20
34177;BME280;20450;49.074;9.158;2023-07-29T12:38:02;99184.50;;;27.44;54.57
34177;BME280;20450;49.074;9.158;2023-07-29T12:40:31;99173.66;;;27.30;54.37
34177;BME280;20450;49.074;9.158;2023-07-29T12:42:58;99180.75;;;27.11;53.44
34177;BME280;20450;49.074;9.158;2023-07-29T12:45:35;99184.69;;;27.01;53.50
34177;BME280;20450;49.074;9.158;2023-07-29T12:48:03;99175.00;;;26.87;53.84
34177;BME280;20450;49.074;9.158;2023-07-29T12:50:30;99169.06;;;26.97;54.02
34177;BME280;20450;49.074;9.158;2023-07-29T12:52:57;99173.03;;;26.87;54.37
34177;BME280;20450;49.074;9.158;2023-07-29T12:55:25;99164.63;;;26.66;54.28
34177;BME280;20450;49.074;9.158;2023-07-29T12:57:54;99176.19;;;26.68;54.17
34177;BME280;20450;49.074;9.158;2023-07-29T13:00:21;99172.59;;;26.76;53.22
34177;BME280;20450;49.074;9.158;2023-07-29T13:02:48;99179.59;;;26.83;54.39
34177;BME280;20450;49.074;9.158;2023-07-29T13:05:16;99184.81;;;27.13;54.63
34177;BME280;20450;49.074;9.158;2023-07-29T13:07:43;99174.47;;;27.22;53.75
34177;BME280;20450;49.074;9.158;2023-07-29T13:10:11;99166.88;;;27.11;53.65